createdAt,value
2019-02-04T00:01:47.862Z,8.50
2019-02-04T00:06:49.546Z,8.73
2019-02-04T00:11:51.105Z,8.93
2019-02-04T00:16:53.047Z,9.20
2019-02-04T00:21:54.658Z,9.27
2019-02-04T00:26:56.440Z,9.00
2019-02-04T00:31:58.198Z,10.23
2019-02-04T00:37:01.627Z,9.90
2019-02-04T00:42:03.293Z,10.80
2019-02-04T00:47:04.964Z,11.00
2019-02-04T00:52:06.747Z,10.90
2019-02-04T00:57:08.335Z,10.97
2019-02-04T01:02:09.973Z,12.13
2019-02-04T01:07:11.636Z,11.10
2019-02-04T01:12:13.258Z,10.60
2019-02-04T01:17:14.805Z,11.97
2019-02-04T01:22:16.380Z,12.57
2019-02-04T01:27:17.960Z,12.00
2019-02-04T01:32:21.015Z,11.90
2019-02-04T01:37:22.990Z,11.33
2019-02-04T01:42:24.551Z,12.10
2019-02-04T01:47:26.185Z,12.43
2019-02-04T01:52:28.081Z,11.33
2019-02-04T01:57:29.744Z,12.00
2019-02-04T02:02:31.331Z,12.33
2019-02-04T02:07:32.987Z,11.93
2019-02-04T02:12:34.523Z,12.27
2019-02-04T02:17:36.764Z,11.53
2019-02-04T02:22:38.643Z,11.50
2019-02-04T02:27:40.174Z,11.53
2019-02-04T02:32:41.839Z,11.13
2019-02-04T02:37:43.439Z,10.87
2019-02-04T02:42:45.431Z,11.90
2019-02-04T02:47:48.587Z,11.60
2019-02-04T02:52:50.142Z,11.77
2019-02-04T02:57:51.768Z,9.87
2019-02-04T03:02:53.353Z,11.00
2019-02-04T03:07:55.374Z,9.97
2019-02-04T03:12:57.064Z,9.93
2019-02-04T03:17:59.327Z,10.83
2019-02-04T03:23:00.889Z,10.00
2019-02-04T03:28:02.396Z,10.40
2019-02-04T03:33:04.452Z,10.53
2019-02-04T03:38:11.065Z,10.77
2019-02-04T03:43:12.606Z,10.60
2019-02-04T03:48:14.214Z,11.30
2019-02-04T03:53:15.747Z,10.93
2019-02-04T03:58:17.309Z,11.47
2019-02-04T04:03:18.926Z,11.90
2019-02-04T04:08:20.464Z,11.93
2019-02-04T04:13:22.021Z,12.50
2019-02-04T04:18:23.628Z,12.77
2019-02-04T04:23:26.857Z,10.83
2019-02-04T04:28:28.390Z,12.30
2019-02-04T04:33:30.325Z,11.00
2019-02-04T04:38:31.892Z,11.17
2019-02-04T04:43:33.471Z,10.67
2019-02-04T04:48:35.014Z,10.63
2019-02-04T04:53:36.567Z,10.00
2019-02-04T04:58:40.694Z,10.20
2019-02-04T05:03:41.879Z,9.73
2019-02-04T05:08:43.647Z,9.63
2019-02-04T05:13:45.521Z,9.80
2019-02-04T05:18:47.882Z,9.30
2019-02-04T05:23:49.452Z,10.10
2019-02-04T05:28:51.061Z,10.33
2019-02-04T05:33:52.986Z,9.90
2019-02-04T05:38:54.865Z,9.90
2019-02-04T05:43:56.399Z,9.70
2019-02-04T05:48:57.953Z,10.27
2019-02-04T05:53:59.483Z,9.80
2019-02-04T05:59:01.579Z,9.60
2019-02-04T06:04:03.282Z,9.80
2019-02-04T06:09:06.496Z,10.67
2019-02-04T06:14:08.074Z,10.77
2019-02-04T06:19:10.033Z,10.40
2019-02-04T06:24:12.681Z,9.77
2019-02-04T06:29:14.227Z,10.07
2019-02-04T06:34:15.915Z,10.03
2019-02-04T06:39:17.498Z,10.27
2019-02-04T06:44:19.137Z,10.77
2019-02-04T06:49:20.747Z,9.50
2019-02-04T06:54:22.667Z,10.70
2019-02-04T06:59:24.507Z,9.17
2019-02-04T07:04:26.382Z,9.50
2019-02-04T07:09:27.942Z,8.77
2019-02-04T07:14:29.924Z,9.33
2019-02-04T07:19:31.452Z,10.33
2019-02-04T07:24:42.457Z,9.40
2019-02-04T07:29:36.554Z,9.63
2019-02-04T07:34:38.158Z,11.03
2019-02-04T07:39:39.744Z,8.53
2019-02-04T07:44:41.484Z,7.93
2019-02-04T07:49:43.072Z,8.30
2019-02-04T07:54:44.656Z,8.60
2019-02-04T07:59:46.208Z,8.30
2019-02-04T08:04:47.871Z,7.43
2019-02-04T08:09:49.801Z,7.93
2019-02-04T08:14:51.456Z,7.17
2019-02-04T08:19:53.202Z,8.80
2019-02-04T08:24:54.706Z,7.73
2019-02-04T08:29:56.514Z,7.27
2019-02-04T08:34:58.275Z,7.60
2019-02-04T08:40:00.051Z,6.67
2019-02-04T08:45:01.951Z,7.57
2019-02-04T08:50:04.663Z,6.53
2019-02-04T08:55:07.058Z,6.37
2019-02-04T09:00:11.033Z,6.77
2019-02-04T09:05:14.933Z,6.70
2019-02-04T09:10:22.418Z,6.33
2019-02-04T09:15:25.312Z,6.17
2019-02-04T09:20:26.920Z,7.03
2019-02-04T09:25:29.700Z,7.37
2019-02-04T09:30:31.998Z,6.43
2019-02-04T09:35:33.567Z,6.07
2019-02-04T09:40:39.344Z,6.70
2019-02-04T09:45:42.709Z,7.80
2019-02-04T09:50:47.393Z,6.70
2019-02-04T09:55:49.025Z,6.90
2019-02-04T10:00:53.434Z,6.77
2019-02-04T10:05:55.034Z,6.87
2019-02-04T10:10:56.629Z,7.03
2019-02-04T10:15:58.342Z,7.57
2019-02-04T10:21:00.644Z,7.07
2019-02-04T10:26:02.437Z,7.67
2019-02-04T10:31:04.027Z,8.10
2019-02-04T10:36:05.642Z,8.20
2019-02-04T10:41:07.203Z,7.33
2019-02-04T10:46:09.016Z,8.07
2019-02-04T10:51:10.702Z,7.50
2019-02-04T10:56:12.336Z,7.60
2019-02-04T11:01:14.942Z,8.20
2019-02-04T11:06:17.949Z,8.23
2019-02-04T11:11:19.996Z,7.87
2019-02-04T11:16:21.555Z,7.57
2019-02-04T11:21:24.468Z,7.60
2019-02-04T11:26:26.053Z,7.97
2019-02-04T11:31:27.612Z,8.00
2019-02-04T11:36:29.159Z,7.40
2019-02-04T11:41:31.138Z,7.10
2019-02-04T11:46:36.193Z,7.77
2019-02-04T11:51:37.845Z,7.50
2019-02-04T11:56:39.391Z,7.30
2019-02-04T12:01:40.949Z,7.90
2019-02-04T12:06:42.537Z,6.97
2019-02-04T12:11:44.185Z,7.20
2019-02-04T12:16:45.885Z,6.90
2019-02-04T12:21:47.467Z,7.00
2019-02-04T12:26:51.098Z,5.73
2019-02-04T12:31:52.659Z,7.77
2019-02-04T12:36:54.373Z,7.23
2019-02-04T12:41:57.149Z,7.13
2019-02-04T12:46:58.747Z,6.87
2019-02-04T12:52:00.341Z,7.20
2019-02-04T12:57:02.926Z,7.10
2019-02-04T13:02:05.685Z,6.10
2019-02-04T13:07:07.594Z,6.53
2019-02-04T13:12:11.220Z,6.77
2019-02-04T13:17:13.031Z,6.57
2019-02-04T13:22:16.373Z,6.90
2019-02-04T13:27:17.933Z,7.70
2019-02-04T13:32:19.759Z,7.13
2019-02-04T13:37:21.363Z,8.23
2019-02-04T13:42:22.941Z,7.57
2019-02-04T13:47:24.725Z,8.57
2019-02-04T13:52:26.348Z,9.00
2019-02-04T13:57:29.020Z,8.43
2019-02-04T14:02:32.679Z,7.77
2019-02-04T14:07:34.253Z,8.53
2019-02-04T14:12:35.845Z,10.23
2019-02-04T14:17:37.420Z,8.77
2019-02-04T14:22:39.217Z,8.73
2019-02-04T14:27:43.362Z,8.50
2019-02-04T14:32:45.092Z,9.67
2019-02-04T14:37:47.063Z,9.20
2019-02-04T14:42:51.974Z,9.10
2019-02-04T14:48:06.094Z,9.07
2019-02-04T14:53:51.602Z,8.30
2019-02-04T14:59:10.037Z,8.90
2019-02-04T15:04:29.521Z,9.97
2019-02-04T15:09:53.692Z,8.83
2019-02-04T15:15:25.470Z,9.50
2019-02-04T15:20:55.567Z,8.57
2019-02-04T15:26:28.971Z,9.20
2019-02-04T15:32:29.376Z,8.67
2019-02-04T15:37:53.470Z,9.17
2019-02-04T15:43:16.680Z,9.07
2019-02-04T15:48:22.961Z,8.37
2019-02-04T15:53:24.991Z,7.57
2019-02-04T15:58:26.659Z,7.97
2019-02-04T16:03:28.292Z,8.00
2019-02-04T16:08:29.944Z,8.90
2019-02-04T16:13:33.411Z,8.00
2019-02-04T16:18:35.819Z,8.90
2019-02-04T16:23:37.379Z,8.70
2019-02-04T16:28:38.992Z,8.67
2019-02-04T16:33:40.736Z,9.40
2019-02-04T16:38:42.461Z,9.13
2019-02-04T16:43:44.478Z,8.93
2019-02-04T16:48:46.552Z,13.75
2019-02-04T16:53:48.424Z,10.17
2019-02-04T16:58:50.014Z,9.53
2019-02-04T17:03:52.791Z,11.63
2019-02-04T17:08:56.259Z,11.27
2019-02-04T17:13:58.253Z,9.90
2019-02-04T17:18:59.925Z,9.70
2019-02-04T17:24:02.885Z,10.80
2019-02-04T17:29:04.494Z,10.77
2019-02-04T17:34:06.152Z,10.07
2019-02-04T17:39:07.780Z,10.60
2019-02-04T17:44:10.151Z,10.60
2019-02-04T17:49:11.901Z,10.80
2019-02-04T17:54:13.822Z,11.40
2019-02-04T17:59:15.819Z,11.60
2019-02-04T18:04:17.338Z,12.77
2019-02-04T18:09:19.342Z,12.37
2019-02-04T18:14:21.012Z,13.17
2019-02-04T18:19:22.675Z,12.33
2019-02-04T18:24:25.437Z,11.53
2019-02-04T18:29:27.677Z,12.17
2019-02-04T18:34:29.655Z,13.30
2019-02-04T18:39:31.324Z,13.80
2019-02-04T18:44:33.477Z,14.40
2019-02-04T18:49:35.123Z,14.23
2019-02-04T18:54:38.920Z,15.63
2019-02-04T18:59:40.471Z,14.60
2019-02-04T19:04:42.263Z,15.33
2019-02-04T19:09:44.004Z,14.80
2019-02-04T19:14:46.252Z,15.07
2019-02-04T19:19:48.610Z,16.07
2019-02-04T19:24:50.146Z,16.83
2019-02-04T19:29:51.719Z,17.30
2019-02-04T19:34:53.332Z,16.37
2019-02-04T19:39:56.201Z,17.27
2019-02-04T19:44:58.160Z,16.47
2019-02-04T19:50:00.735Z,18.03
2019-02-04T19:55:02.926Z,17.50
2019-02-04T20:00:07.844Z,16.17
2019-02-04T20:05:10.357Z,16.63
2019-02-04T20:10:14.451Z,16.47
2019-02-04T20:15:21.882Z,18.43
2019-02-04T20:20:23.788Z,19.37
2019-02-04T20:25:26.960Z,19.17
2019-02-04T20:30:30.805Z,19.33
2019-02-04T20:35:32.586Z,18.50
2019-02-04T20:40:34.402Z,20.60
2019-02-04T20:45:36.658Z,19.00
2019-02-04T20:50:39.843Z,19.90
2019-02-04T20:55:44.538Z,20.43
2019-02-04T21:00:46.282Z,20.37
2019-02-04T21:05:48.283Z,23.00
2019-02-04T21:10:50.071Z,21.87
2019-02-04T21:15:52.404Z,22.47
2019-02-04T21:20:56.141Z,21.67
2019-02-04T21:25:57.870Z,23.70
2019-02-04T21:30:59.467Z,26.43
2019-02-04T21:36:01.185Z,25.67
2019-02-04T21:41:04.527Z,25.67
2019-02-04T21:46:06.732Z,27.40
2019-02-04T21:51:08.482Z,27.50
2019-02-04T21:56:10.393Z,27.60
2019-02-04T22:01:11.989Z,27.00
2019-02-04T22:06:13.557Z,26.87
2019-02-04T22:11:15.288Z,26.63
2019-02-04T22:16:18.954Z,26.30
2019-02-04T22:21:20.993Z,25.53
2019-02-04T22:26:22.617Z,25.07
2019-02-04T22:31:24.421Z,25.00
2019-02-04T22:36:25.979Z,26.07
2019-02-04T22:41:27.612Z,28.03
2019-02-04T22:46:30.042Z,27.97
2019-02-04T22:51:31.774Z,26.53
2019-02-04T22:56:34.412Z,27.30
2019-02-04T23:01:48.093Z,27.17
2019-02-04T23:06:51.733Z,26.90
2019-02-04T23:11:53.291Z,26.10
2019-02-04T23:16:55.008Z,27.03
2019-02-04T23:21:56.559Z,27.43
2019-02-04T23:26:58.199Z,29.40
2019-02-04T23:31:59.772Z,28.07
2019-02-04T23:37:01.457Z,29.50
2019-02-04T23:42:03.026Z,30.50
2019-02-04T23:47:05.363Z,30.13
2019-02-04T23:52:08.767Z,30.53
2019-02-04T23:57:10.303Z,34.10
